Time;durP1;ratioP1;P1;durP2;ratioP2;P2;SDS_P1;SDS_P2;PMS_P1;PMS_P2;Temp;Humidity;BMP_temperature;BMP_pressure;BME280_temperature;BME280_humidity;BME280_pressure;Samples;Min_cycle;Max_cycle;Signal;HPM_P1;HPM_P2
2023/01/22 00:01:18;;;;;;;21.37;9.80;;;;;;;-145.69;100.00;52711.75;5114883;28;20206;-78
2023/01/22 00:03:45;;;;;;;22.13;9.10;;;;;;;-145.69;100.00;52703.81;5114267;28;20193;-78
2023/01/22 00:06:12;;;;;;;24.80;10.30;;;;;;;-145.69;100.00;52721.66;5115087;28;20214;-78
2023/01/22 00:08:40;;;;;;;25.80;10.67;;;;;;;-145.69;100.00;52701.84;5114468;28;20229;-78
2023/01/22 00:11:06;;;;;;;22.03;9.77;;;;;;;-145.69;100.00;52725.63;5114611;28;20583;-78
2023/01/22 00:13:33;;;;;;;25.80;9.93;;;;;;;-145.69;100.00;52733.53;5114823;28;20202;-77
2023/01/22 00:16:00;;;;;;;26.23;10.70;;;;;;;-145.69;100.00;52699.88;5114744;28;20204;-78
2023/01/22 00:18:27;;;;;;;23.87;9.47;;;;;;;-145.69;100.00;52717.69;5114401;28;20198;-78
2023/01/22 00:20:54;;;;;;;23.93;10.50;;;;;;;-145.69;100.00;52709.78;5114418;28;20201;-78
2023/01/22 00:23:21;;;;;;;20.57;9.80;;;;;;;-145.69;100.00;52713.72;5114055;28;20215;-78
2023/01/22 00:25:50;;;;;;;23.33;9.90;;;;;;;-145.69;100.00;52739.47;5114708;28;20198;-78
2023/01/22 00:28:16;;;;;;;23.23;10.03;;;;;;;-145.69;100.00;52697.88;5113844;28;20238;-78
2023/01/22 00:30:43;;;;;;;17.67;9.57;;;;;;;-145.69;100.00;52699.88;5114040;28;20204;-78
2023/01/22 00:33:09;;;;;;;23.87;10.00;;;;;;;-145.69;100.00;52705.81;5114248;28;20655;-78
2023/01/22 00:35:36;;;;;;;25.40;10.33;;;;;;;-145.69;100.00;52709.78;5114605;28;20208;-78
2023/01/22 00:38:02;;;;;;;21.97;9.97;;;;;;;-145.69;100.00;52727.59;5114342;28;20204;-78
2023/01/22 00:40:29;;;;;;;22.53;10.10;;;;;;;-145.69;100.00;52717.69;5113846;28;20547;-78
2023/01/22 00:42:57;;;;;;;24.83;10.70;;;;;;;-145.69;100.00;52707.78;5114695;28;20201;-78
2023/01/22 00:45:23;;;;;;;23.33;10.63;;;;;;;-145.69;100.00;52729.56;5113857;28;20618;-78
2023/01/22 00:47:50;;;;;;;25.37;10.87;;;;;;;-145.69;100.00;52747.41;5114180;28;20319;-78
2023/01/22 00:50:17;;;;;;;23.93;10.30;;;;;;;-145.69;100.00;52693.94;5114259;28;20204;-78
2023/01/22 00:52:44;;;;;;;21.93;10.17;;;;;;;-145.69;100.00;52697.88;5113936;28;20212;-78
2023/01/22 00:55:10;;;;;;;30.93;11.30;;;;;;;-145.69;100.00;52745.41;5114038;28;20198;-78
2023/01/22 00:57:36;;;;;;;23.77;10.77;;;;;;;-145.69;100.00;52725.63;5110794;28;20201;-78
2023/01/22 01:00:06;;;;;;;27.30;10.53;;;;;;;-145.69;100.00;52721.66;5113431;28;20322;-78
2023/01/22 01:02:32;;;;;;;27.93;11.13;;;;;;;-145.69;100.00;52707.78;5113793;28;20257;-77
2023/01/22 01:05:00;;;;;;;23.20;10.77;;;;;;;-145.69;100.00;52725.63;5114062;28;20208;-78
2023/01/22 01:07:27;;;;;;;27.57;11.70;;;;;;;-145.69;100.00;52725.63;5113693;28;20217;-78
2023/01/22 01:09:53;;;;;;;27.07;11.03;;;;;;;-145.69;100.00;52743.44;5113874;28;20197;-78
2023/01/22 01:12:20;;;;;;;22.87;10.77;;;;;;;-145.69;100.00;52741.47;5113648;28;20683;-78
2023/01/22 01:14:46;;;;;;;26.20;10.90;;;;;;;-145.69;100.00;52705.81;5113672;28;20690;-78
2023/01/22 01:17:14;;;;;;;22.13;9.97;;;;;;;-145.69;100.00;52713.72;5113530;28;20657;-78
2023/01/22 01:19:40;;;;;;;22.20;9.43;;;;;;;-145.69;100.00;52682.03;5113595;28;20212;-78
2023/01/22 01:22:07;;;;;;;28.03;10.70;;;;;;;-145.69;100.00;52701.84;5113480;28;20262;-78
2023/01/22 01:24:35;;;;;;;22.23;10.47;;;;;;;-145.69;100.00;52721.66;5113445;28;20202;-78
2023/01/22 01:27:01;;;;;;;23.70;9.67;;;;;;;-145.69;100.00;52713.72;5113224;28;20569;-78
2023/01/22 01:29:28;;;;;;;21.73;9.23;;;;;;;-145.69;100.00;52713.72;5113592;28;20316;-78
2023/01/22 01:31:56;;;;;;;24.87;10.07;;;;;;;-145.69;100.00;52717.69;5113407;28;20192;-78
2023/01/22 01:34:24;;;;;;;21.70;9.57;;;;;;;-145.69;100.00;52733.53;5113552;28;20292;-78
2023/01/22 01:36:50;;;;;;;24.50;9.13;;;;;;;-145.69;100.00;52729.56;5113346;28;20197;-78
2023/01/22 01:39:17;;;;;;;24.53;10.07;;;;;;;-145.69;100.00;52709.78;5113404;28;20205;-78
2023/01/22 01:41:44;;;;;;;24.23;10.20;;;;;;;-145.69;100.00;52729.56;5113046;28;20572;-78
2023/01/22 01:44:13;;;;;;;21.30;9.17;;;;;;;-145.69;100.00;52707.78;5113150;28;20225;-78
2023/01/22 01:46:44;;;;;;;26.37;9.63;;;;;;;-145.69;100.00;52739.47;5113463;28;20202;-78
2023/01/22 01:49:25;;;;;;;23.33;9.73;;;;;;;-145.69;100.00;52731.56;5113412;28;20221;-79
2023/01/22 01:51:57;;;;;;;17.77;8.00;;;;;;;-145.69;100.00;52753.34;5113601;28;20219;-78
2023/01/22 01:54:23;;;;;;;25.03;10.83;;;;;;;-145.69;100.00;52725.63;5093053;28;20205;-79
2023/01/22 01:56:54;;;;;;;26.33;10.10;;;;;;;-145.69;100.00;52713.72;5092850;28;20676;-78
2023/01/22 01:59:22;;;;;;;22.73;9.87;;;;;;;-145.69;100.00;52719.66;5092865;28;20202;-78
2023/01/22 02:01:52;;;;;;;21.20;9.40;;;;;;;-145.69;100.00;52711.75;5100752;28;20201;-79
2023/01/22 02:04:19;;;;;;;29.73;11.30;;;;;;;-145.69;100.00;52737.50;5113130;28;20202;-78
2023/01/22 02:06:46;;;;;;;26.50;10.37;;;;;;;-145.69;100.00;52741.47;5113074;28;20205;-78
2023/01/22 02:09:14;;;;;;;25.33;9.90;;;;;;;-145.69;100.00;52729.56;5112976;28;20225;-78
2023/01/22 02:11:41;;;;;;;24.80;10.53;;;;;;;-145.69;100.00;52695.91;5113079;28;20208;-78
2023/01/22 02:14:12;;;;;;;27.10;10.60;;;;;;;-145.69;100.00;52733.53;5113142;28;20208;-78
2023/01/22 02:16:38;;;;;;;24.60;10.97;;;;;;;-145.69;100.00;52719.66;5112620;28;20200;-78
2023/01/22 02:19:05;;;;;;;27.00;11.47;;;;;;;-145.69;100.00;52717.69;5112817;28;20201;-79
2023/01/22 02:21:37;;;;;;;24.83;10.87;;;;;;;-145.69;100.00;52723.63;5113116;28;20197;-79
2023/01/22 02:24:05;;;;;;;27.93;10.77;;;;;;;-145.69;100.00;52684.03;5111845;28;20198;-78
2023/01/22 02:26:32;;;;;;;29.43;10.93;;;;;;;-145.69;100.00;52729.56;5112978;28;20221;-78
2023/01/22 02:28:58;;;;;;;26.93;10.67;;;;;;;-145.69;100.00;52737.50;5112257;28;20718;-78
2023/01/22 02:31:25;;;;;;;27.07;10.60;;;;;;;-145.69;100.00;52701.84;5112668;28;20197;-78
2023/01/22 02:33:52;;;;;;;25.13;10.77;;;;;;;-145.69;100.00;52725.63;5112945;28;20617;-78
2023/01/22 02:36:20;;;;;;;26.77;11.20;;;;;;;-145.69;100.00;52705.81;5112905;28;20202;-78
2023/01/22 02:38:47;;;;;;;25.87;10.23;;;;;;;-145.69;100.00;52701.84;5112578;28;20251;-78
2023/01/22 02:41:14;;;;;;;23.50;10.40;;;;;;;-145.69;100.00;52723.63;5112649;28;20660;-78
2023/01/22 02:43:40;;;;;;;23.57;10.43;;;;;;;-145.69;100.00;52725.63;5112789;28;20201;-77
2023/01/22 02:46:07;;;;;;;21.07;9.13;;;;;;;-145.69;100.00;52725.63;5112731;28;20224;-79
2023/01/22 02:48:33;;;;;;;22.67;10.60;;;;;;;-145.69;100.00;52741.47;5112827;28;20233;-78
2023/01/22 02:51:00;;;;;;;22.50;9.77;;;;;;;-145.69;100.00;52678.09;5112826;28;20207;-78
2023/01/22 02:53:26;;;;;;;24.00;10.30;;;;;;;-145.69;100.00;52709.78;5113550;28;20204;-78
2023/01/22 02:55:54;;;;;;;21.83;9.73;;;;;;;-145.69;100.00;52741.47;5116032;28;20539;-78
2023/01/22 02:58:21;;;;;;;22.57;10.13;;;;;;;-145.69;100.00;52693.94;5116136;28;20197;-78
2023/01/22 03:00:47;;;;;;;26.37;10.60;;;;;;;-145.69;100.00;52687.97;5116195;28;20688;-78
2023/01/22 03:03:15;;;;;;;24.80;10.73;;;;;;;-145.69;100.00;52709.78;5115532;28;20197;-78
2023/01/22 03:05:47;;;;;;;22.87;11.23;;;;;;;-145.69;100.00;52709.78;5116114;28;20656;-78
2023/01/22 03:08:14;;;;;;;25.30;9.97;;;;;;;-145.69;100.00;52705.81;5115775;28;20632;-78
2023/01/22 03:10:40;;;;;;;25.53;10.07;;;;;;;-145.69;100.00;52687.97;5116003;28;20292;-78
2023/01/22 03:21:21;;;;;;;26.27;9.43;;;;;;;-145.69;100.00;52727.59;5115960;28;20579;-77
2023/01/22 03:23:49;;;;;;;21.47;9.03;;;;;;;-145.69;100.00;52735.50;5115245;28;20545;-77
2023/01/22 03:26:16;;;;;;;22.70;9.50;;;;;;;-145.69;100.00;52709.78;5115437;28;20204;-79
2023/01/22 03:28:44;;;;;;;24.37;9.77;;;;;;;-145.69;100.00;52717.69;5115702;28;20311;-79
2023/01/22 03:31:12;;;;;;;21.00;9.03;;;;;;;-145.69;100.00;52693.94;5115682;28;20210;-79
2023/01/22 03:33:39;;;;;;;18.30;8.50;;;;;;;-145.69;100.00;52721.66;5115649;28;20205;-78
2023/01/22 03:36:08;;;;;;;21.30;8.97;;;;;;;-145.69;100.00;52703.81;5115590;28;20209;-78
2023/01/22 03:38:34;;;;;;;28.73;12.93;;;;;;;-145.69;100.00;52733.53;5114871;28;20435;-79
2023/01/22 03:41:03;;;;;;;25.27;10.20;;;;;;;-145.69;100.00;52723.63;5115669;28;20215;-79
2023/01/22 03:43:29;;;;;;;24.50;10.53;;;;;;;-145.69;100.00;52705.81;5115506;28;20605;-79
2023/01/22 03:46:02;;;;;;;20.80;9.10;;;;;;;-145.69;100.00;52721.66;5115270;28;20234;-79
2023/01/22 03:48:29;;;;;;;20.97;9.77;;;;;;;-145.69;100.00;52721.66;5115265;28;20224;-78
2023/01/22 03:50:55;;;;;;;20.50;9.00;;;;;;;-145.69;100.00;52737.50;5115148;28;20204;-79
2023/01/22 03:53:22;;;;;;;21.63;9.43;;;;;;;-145.69;100.00;52725.63;5114891;28;20227;-79
2023/01/22 03:55:57;;;;;;;18.00;8.40;;;;;;;-145.69;100.00;52709.78;5115184;28;20197;-79
2023/01/22 03:58:23;;;;;;;24.43;8.37;;;;;;;-145.69;100.00;52717.69;5115066;28;20197;-79
2023/01/22 04:00:50;;;;;;;22.33;9.23;;;;;;;-145.69;100.00;52701.84;5115091;28;20204;-79
2023/01/22 04:03:17;;;;;;;22.33;9.23;;;;;;;-145.69;100.00;52697.88;5114913;28;20201;-79
2023/01/22 04:05:44;;;;;;;21.20;8.47;;;;;;;-145.69;100.00;52729.56;5115251;27;20221;-78
2023/01/22 04:08:10;;;;;;;22.23;9.07;;;;;;;-145.69;100.00;52705.81;5115194;28;20208;-78
2023/01/22 04:10:37;;;;;;;21.13;8.43;;;;;;;-145.69;100.00;52729.56;5115084;28;20202;-79
2023/01/22 04:13:04;;;;;;;21.03;8.80;;;;;;;-145.69;100.00;52725.63;5114465;28;20197;-78
2023/01/22 04:15:30;;;;;;;28.15;12.85;;;;;;;-145.69;100.00;52717.69;5113788;28;20933;-78
2023/01/22 04:17:56;;;;;;;23.93;10.10;;;;;;;-145.69;100.00;52743.44;5115232;28;20201;-79
2023/01/22 04:20:24;;;;;;;20.63;8.60;;;;;;;-145.69;100.00;52715.72;5114881;28;20201;-79
2023/01/22 04:22:51;;;;;;;22.80;8.70;;;;;;;-145.69;100.00;52703.81;5114476;28;20194;-79
2023/01/22 04:25:17;;;;;;;19.13;8.53;;;;;;;-145.69;100.00;52757.31;5114724;28;20205;-79
2023/01/22 04:27:44;;;;;;;19.63;8.80;;;;;;;-145.69;100.00;52713.72;5114116;28;20656;-79
2023/01/22 04:30:11;;;;;;;23.20;8.93;;;;;;;-145.69;100.00;52705.81;5114442;28;20233;-79
2023/01/22 04:32:38;;;;;;;20.63;8.27;;;;;;;-145.69;100.00;52711.75;5114582;28;20203;-78
2023/01/22 04:35:05;;;;;;;31.13;10.07;;;;;;;-145.69;100.00;52725.63;5114661;28;20204;-79
2023/01/22 04:37:33;;;;;;;28.67;8.90;;;;;;;-145.69;100.00;52719.66;5114467;28;20648;-79
2023/01/22 04:39:59;;;;;;;21.70;8.50;;;;;;;-145.69;100.00;52737.50;5114487;28;20208;-79
2023/01/22 04:42:26;;;;;;;24.83;9.63;;;;;;;-145.69;100.00;52723.63;5114638;28;20559;-78
2023/01/22 04:44:53;;;;;;;27.70;9.37;;;;;;;-145.69;100.00;52693.94;5114018;28;20225;-78
2023/01/22 04:47:20;;;;;;;35.60;9.77;;;;;;;-145.69;100.00;52721.66;5114146;28;20655;-78
2023/01/22 04:49:46;;;;;;;23.87;8.90;;;;;;;-145.69;100.00;52723.63;5114312;28;20303;-78
2023/01/22 04:52:13;;;;;;;31.33;10.37;;;;;;;-145.69;100.00;52711.75;5113763;28;20193;-78
2023/01/22 04:54:41;;;;;;;33.37;9.73;;;;;;;-145.69;100.00;52699.88;5109838;28;20204;-78
2023/01/22 04:57:07;;;;;;;29.97;9.30;;;;;;;-145.69;100.00;52733.53;5113554;28;20219;-79
2023/01/22 04:59:33;;;;;;;21.70;9.30;;;;;;;-145.69;100.00;52703.81;5113850;28;20683;-79
2023/01/22 05:02:03;;;;;;;26.47;8.57;;;;;;;-145.69;100.00;52682.03;5113957;28;20201;-78
2023/01/22 05:04:29;;;;;;;19.57;8.07;;;;;;;-145.69;100.00;52701.84;5114050;28;20201;-79
2023/01/22 05:06:56;;;;;;;20.57;8.27;;;;;;;-145.69;100.00;52707.78;5113793;28;20197;-79
2023/01/22 05:09:23;;;;;;;19.70;7.70;;;;;;;-145.69;100.00;52695.91;5113721;28;20232;-79
2023/01/22 05:11:51;;;;;;;24.33;9.03;;;;;;;-145.69;100.00;52705.81;5113681;28;20273;-78
2023/01/22 05:14:17;;;;;;;19.53;8.03;;;;;;;-145.69;100.00;52729.56;5113538;28;20201;-79
2023/01/22 05:16:44;;;;;;;20.50;7.93;;;;;;;-145.69;100.00;52709.78;5113309;28;20564;-79
2023/01/22 05:19:10;;;;;;;19.03;7.73;;;;;;;-145.69;100.00;52705.81;5113757;28;20208;-78
2023/01/22 05:21:37;;;;;;;19.70;7.93;;;;;;;-145.69;100.00;52741.47;5113416;28;20194;-79
2023/01/22 05:24:04;;;;;;;21.30;8.33;;;;;;;-145.69;100.00;52709.78;5113451;28;20197;-79
2023/01/22 05:26:30;;;;;;;21.10;8.47;;;;;;;-145.69;100.00;52727.59;5113107;28;20194;-79
2023/01/22 05:28:58;;;;;;;19.57;7.83;;;;;;;-145.69;100.00;52713.72;5113604;28;20229;-78
2023/01/22 05:31:24;;;;;;;21.60;7.77;;;;;;;-145.69;100.00;52739.47;5113551;28;20201;-79
2023/01/22 05:33:51;;;;;;;21.60;8.10;;;;;;;-145.69;100.00;52709.78;5113515;28;20198;-79
2023/01/22 05:36:17;;;;;;;18.40;7.37;;;;;;;-145.69;100.00;52703.81;5113727;28;20201;-80
2023/01/22 05:38:45;;;;;;;19.47;7.87;;;;;;;-145.69;100.00;52741.47;5113646;28;20197;-79
2023/01/22 05:41:12;;;;;;;20.80;7.77;;;;;;;-145.69;100.00;52697.88;5113581;28;20197;-79
2023/01/22 05:43:39;;;;;;;22.33;7.97;;;;;;;-145.69;100.00;52709.78;5113452;28;20206;-79
2023/01/22 05:46:07;;;;;;;20.40;7.93;;;;;;;-145.69;100.00;52719.66;5112873;28;20213;-79
2023/01/22 05:48:33;;;;;;;23.53;8.80;;;;;;;-145.69;100.00;52731.56;5113272;28;20629;-79
2023/01/22 05:51:03;;;;;;;19.47;8.07;;;;;;;-145.69;100.00;52721.66;5113145;28;20244;-79
2023/01/22 05:53:30;;;;;;;28.67;9.20;;;;;;;-145.69;100.00;52719.66;5113683;28;20278;-79
2023/01/22 05:56:01;;;;;;;23.10;8.07;;;;;;;-145.69;100.00;52701.84;5113461;28;20274;-79
2023/01/22 05:58:27;;;;;;;18.77;7.97;;;;;;;-145.69;100.00;52687.97;5113486;28;20624;-79
2023/01/22 06:00:54;;;;;;;25.13;10.07;;;;;;;-145.69;100.00;52697.88;5112702;28;20442;-79
2023/01/22 06:03:22;;;;;;;23.53;9.00;;;;;;;-145.69;100.00;52707.78;5113712;28;20202;-79
2023/01/22 06:05:57;;;;;;;21.93;8.67;;;;;;;-145.69;100.00;52709.78;5112702;28;20201;-79
2023/01/22 06:08:23;;;;;;;19.53;8.00;;;;;;;-145.69;100.00;52723.63;5112767;28;20213;-79
2023/01/22 06:10:50;;;;;;;19.63;8.10;;;;;;;-145.69;100.00;52695.91;5112913;28;20240;-79
2023/01/22 06:13:16;;;;;;;21.57;8.33;;;;;;;-145.69;100.00;52709.78;5113011;28;20676;-79
2023/01/22 06:15:43;;;;;;;23.77;8.43;;;;;;;-145.69;100.00;52705.81;5112965;28;20224;-79
2023/01/22 06:18:10;;;;;;;18.00;7.93;;;;;;;-145.69;100.00;52709.78;5112697;28;20555;-79
2023/01/22 06:20:38;;;;;;;20.67;8.57;;;;;;;-145.69;100.00;52721.66;5112916;28;20197;-79
2023/01/22 06:23:04;;;;;;;23.50;9.30;;;;;;;-145.69;100.00;52695.91;5112983;28;20209;-79
2023/01/22 06:25:33;;;;;;;22.83;8.50;;;;;;;-145.69;100.00;52666.19;5112980;28;20219;-79
2023/01/22 06:27:59;;;;;;;18.53;7.83;;;;;;;-145.69;100.00;52725.63;5115270;28;20213;-79
2023/01/22 06:30:26;;;;;;;16.47;7.67;;;;;;;-145.69;100.00;52719.66;5116723;28;20225;-79
2023/01/22 06:32:52;;;;;;;21.00;8.47;;;;;;;-145.69;100.00;52715.72;5116760;28;20201;-79
2023/01/22 06:35:19;;;;;;;24.50;8.23;;;;;;;-145.69;100.00;52707.78;5115994;28;20193;-79
2023/01/22 06:37:47;;;;;;;18.87;7.50;;;;;;;-145.69;100.00;52731.56;5116590;28;20200;-78
2023/01/22 06:40:13;;;;;;;18.90;7.60;;;;;;;-145.69;100.00;52717.69;5116754;28;20201;-79
2023/01/22 06:42:40;;;;;;;22.43;7.67;;;;;;;-145.69;100.00;52709.78;5116626;28;20205;-79
2023/01/22 06:45:08;;;;;;;20.13;8.17;;;;;;;-145.69;100.00;52684.03;5108765;28;20230;-78
2023/01/22 06:47:34;;;;;;;16.33;7.13;;;;;;;-145.69;100.00;52713.72;5110476;28;20205;-79
2023/01/22 06:50:01;;;;;;;21.70;7.60;;;;;;;-145.69;100.00;52731.56;5116301;28;20232;-79
2023/01/22 06:52:28;;;;;;;20.47;8.03;;;;;;;-145.69;100.00;52715.72;5116203;28;20675;-79
2023/01/22 06:54:55;;;;;;;19.67;8.80;;;;;;;-145.69;100.00;52701.84;5116510;28;20350;-79
2023/01/22 06:57:22;;;;;;;23.00;9.30;;;;;;;-145.69;100.00;52697.88;5116773;28;20201;-79
2023/01/22 06:59:48;;;;;;;22.43;8.50;;;;;;;-145.69;100.00;52721.66;5116138;28;20208;-79
2023/01/22 07:02:17;;;;;;;25.47;9.37;;;;;;;-145.69;100.00;52715.72;5116197;28;20193;-79
2023/01/22 07:04:43;;;;;;;28.63;10.60;;;;;;;-145.69;100.00;52729.56;5115997;28;20225;-79
2023/01/22 07:07:10;;;;;;;26.57;10.27;;;;;;;-145.69;100.00;52733.53;5116019;28;20224;-79
2023/01/22 07:09:37;;;;;;;26.30;9.63;;;;;;;-145.69;100.00;52757.31;5115879;28;20232;-79
2023/01/22 07:12:05;;;;;;;24.17;10.03;;;;;;;-145.69;100.00;52723.63;5116078;28;20198;-79
2023/01/22 07:14:31;;;;;;;26.50;9.97;;;;;;;-145.69;100.00;52717.69;5115895;28;20198;-79
2023/01/22 07:16:58;;;;;;;30.57;10.17;;;;;;;-145.69;100.00;52733.53;5115676;28;20529;-79
2023/01/22 07:19:25;;;;;;;23.60;9.20;;;;;;;-145.69;100.00;52717.69;5116242;28;20201;-79
2023/01/22 07:21:51;;;;;;;28.03;10.30;;;;;;;-145.69;100.00;52713.72;5115703;27;20189;-79
2023/01/22 07:24:18;;;;;;;26.47;9.60;;;;;;;-145.69;100.00;52684.03;5115845;28;20198;-79
2023/01/22 07:26:45;;;;;;;32.05;12.25;;;;;;;-145.69;100.00;52713.72;5115310;28;20434;-79
2023/01/22 07:29:13;;;;;;;30.63;11.27;;;;;;;-145.69;100.00;52727.59;5115642;28;20201;-79
2023/01/22 07:31:39;;;;;;;28.47;10.40;;;;;;;-145.69;100.00;52705.81;5115702;28;20551;-79
2023/01/22 07:34:06;;;;;;;35.30;13.17;;;;;;;-145.69;100.00;52745.41;5115574;28;20201;-78
2023/01/22 07:36:33;;;;;;;33.60;11.57;;;;;;;-145.69;100.00;52733.53;5115740;28;20198;-78
2023/01/22 07:39:02;;;;;;;27.80;10.17;;;;;;;-145.69;100.00;52709.78;5115304;28;20205;-78
2023/01/22 07:41:29;;;;;;;25.17;9.50;;;;;;;-145.69;100.00;52717.69;5115686;28;20197;-78
2023/01/22 07:43:56;;;;;;;22.20;8.57;;;;;;;-145.69;100.00;52701.84;5115225;28;20201;-78
2023/01/22 07:46:27;;;;;;;23.53;8.47;;;;;;;-145.69;100.00;52719.66;5115313;28;20238;-78
2023/01/22 07:48:53;;;;;;;21.23;8.53;;;;;;;-145.69;100.00;52697.88;5115362;28;20194;-79
2023/01/22 07:51:20;;;;;;;23.03;9.67;;;;;;;-145.69;100.00;52745.41;5115056;28;20232;-78
2023/01/22 07:53:47;;;;;;;26.47;9.63;;;;;;;-145.69;100.00;52725.63;5114880;28;20197;-78
2023/01/22 07:56:13;;;;;;;24.07;9.87;;;;;;;-145.69;100.00;52729.56;5115204;28;20197;-78
2023/01/22 07:58:40;;;;;;;22.70;9.03;;;;;;;-145.69;100.00;52741.47;5115114;28;20202;-78
2023/01/22 08:01:07;;;;;;;25.03;9.97;;;;;;;-145.69;100.00;52686.00;5115016;28;20659;-77
2023/01/22 08:03:36;;;;;;;26.77;10.17;;;;;;;-145.69;100.00;52725.63;5114872;28;20197;-78
2023/01/22 08:06:07;;;;;;;28.77;10.87;;;;;;;-145.69;100.00;52717.69;5115128;28;20292;-78
2023/01/22 08:08:34;;;;;;;24.87;9.97;;;;;;;-145.69;100.00;52713.72;5115258;28;20197;-78
2023/01/22 08:11:00;;;;;;;30.10;10.37;;;;;;;-145.69;100.00;52703.81;5114602;28;20282;-77
2023/01/22 08:13:27;;;;;;;23.33;9.87;;;;;;;-145.69;100.00;52711.75;5114827;28;20205;-77
2023/01/22 08:15:54;;;;;;;23.13;9.97;;;;;;;-145.69;100.00;52711.75;5114767;28;20289;-78
2023/01/22 08:18:21;;;;;;;43.27;19.87;;;;;;;-145.69;100.00;52745.41;5114648;28;20193;-78
2023/01/22 08:20:49;;;;;;;31.07;12.33;;;;;;;-145.69;100.00;52705.81;5114663;28;20203;-77
2023/01/22 08:23:15;;;;;;;29.20;10.70;;;;;;;-145.69;100.00;52745.41;5113899;28;20197;-77
2023/01/22 08:25:42;;;;;;;27.17;11.10;;;;;;;-145.69;100.00;52693.94;5114280;28;20193;-77
2023/01/22 08:28:08;;;;;;;35.78;13.82;;;;;;;-145.69;100.00;52711.75;5114234;28;20435;-77
2023/01/22 08:30:35;;;;;;;32.23;12.57;;;;;;;-145.69;100.00;52670.16;5114525;28;20335;-78
2023/01/22 08:33:02;;;;;;;31.27;11.43;;;;;;;-145.69;100.00;52674.13;5114630;28;20193;-78
2023/01/22 08:35:28;;;;;;;35.97;12.87;;;;;;;-145.69;100.00;52709.78;5114446;28;20204;-78
2023/01/22 08:37:59;;;;;;;28.23;11.83;;;;;;;-145.69;100.00;52713.72;5114306;28;20197;-78
2023/01/22 08:40:29;;;;;;;27.43;11.10;;;;;;;-145.69;100.00;52709.78;5114244;28;20202;-78
2023/01/22 08:42:56;;;;;;;29.83;11.37;;;;;;;-145.69;100.00;52695.91;5114214;28;20216;-78
2023/01/22 08:45:22;;;;;;;29.00;10.90;;;;;;;-145.69;100.00;52699.88;5102655;28;20226;-77
2023/01/22 08:47:50;;;;;;;29.63;11.43;;;;;;;-145.69;100.00;52713.72;5111091;28;20201;-77
2023/01/22 08:50:17;;;;;;;23.37;9.77;;;;;;;-145.69;100.00;52725.63;5113417;28;20221;-78
2023/01/22 08:52:43;;;;;;;28.17;10.60;;;;;;;-145.69;100.00;52729.56;5113759;28;20189;-77
2023/01/22 08:55:11;;;;;;;21.07;9.60;;;;;;;-145.69;100.00;52672.13;5114255;28;20282;-77
2023/01/22 08:57:38;;;;;;;22.27;9.30;;;;;;;-145.69;100.00;52691.94;5114027;28;20201;-76
2023/01/22 09:00:05;;;;;;;22.77;10.17;;;;;;;-145.69;100.00;52713.72;5114360;28;20202;-76
2023/01/22 09:02:32;;;;;;;20.53;8.10;;;;;;;-145.69;100.00;52680.06;5114261;28;20204;-76
2023/01/22 09:04:58;;;;;;;19.47;8.63;;;;;;;-145.69;100.00;52719.66;5113986;28;20208;-76
2023/01/22 09:07:27;;;;;;;22.93;9.73;;;;;;;-145.69;100.00;52678.09;5113805;28;20220;-76
2023/01/22 09:09:54;;;;;;;22.03;8.83;;;;;;;-145.69;100.00;52684.03;5113733;28;20204;-76
2023/01/22 09:12:22;;;;;;;20.60;9.17;;;;;;;-145.69;100.00;52680.06;5113998;28;20197;-76
2023/01/22 09:14:48;;;;;;;17.47;7.53;;;;;;;-145.69;100.00;52741.47;5113583;28;20675;-76
2023/01/22 09:17:15;;;;;;;19.80;9.20;;;;;;;-145.69;100.00;52745.41;5113202;28;20201;-76
2023/01/22 09:19:41;;;;;;;23.10;9.10;;;;;;;-145.69;100.00;52674.13;5113495;28;20201;-76
2023/01/22 09:22:08;;;;;;;23.37;9.60;;;;;;;-145.69;100.00;52745.41;5113173;28;20237;-76
2023/01/22 09:24:34;;;;;;;23.00;9.00;;;;;;;-145.69;100.00;52713.72;5113791;28;20197;-76
2023/01/22 09:27:01;;;;;;;21.70;8.50;;;;;;;-145.69;100.00;52709.78;5113619;28;20208;-76
2023/01/22 09:29:28;;;;;;;19.57;8.77;;;;;;;-145.69;100.00;52693.94;5113496;28;20201;-76
2023/01/22 09:31:56;;;;;;;20.70;9.10;;;;;;;-145.69;100.00;52674.13;5113156;28;20236;-76
2023/01/22 09:34:23;;;;;;;17.80;8.63;;;;;;;-145.69;100.00;52705.81;5113407;28;20232;-76
2023/01/22 09:36:50;;;;;;;24.87;10.53;;;;;;;-145.69;100.00;52693.94;5113533;28;20204;-76
2023/01/22 09:39:17;;;;;;;21.83;9.53;;;;;;;-145.69;100.00;52682.03;5113554;28;20563;-76
2023/01/22 09:41:49;;;;;;;21.00;9.40;;;;;;;-145.69;100.00;52713.72;5113195;28;20240;-76
2023/01/22 09:44:21;;;;;;;25.90;9.27;;;;;;;-145.69;100.00;52693.94;5113254;28;20240;-76
2023/01/22 09:46:54;;;;;;;20.60;8.93;;;;;;;-145.69;100.00;52686.00;5113069;28;20197;-75
2023/01/22 09:49:25;;;;;;;20.73;9.37;;;;;;;-145.69;100.00;52717.69;5113511;28;20580;-76
2023/01/22 09:51:56;;;;;;;20.63;9.40;;;;;;;-145.69;100.00;52709.78;5113133;28;20221;-76
2023/01/22 09:54:24;;;;;;;21.13;9.53;;;;;;;-145.69;100.00;52691.94;5113228;28;20194;-76
2023/01/22 09:56:53;;;;;;;24.63;9.43;;;;;;;-145.69;100.00;52721.66;5113257;28;20229;-76
2023/01/22 09:59:22;;;;;;;19.47;8.80;;;;;;;-145.69;100.00;52682.03;5113115;28;20201;-76
2023/01/22 10:01:53;;;;;;;22.43;8.20;;;;;;;-145.69;100.00;52707.78;5114916;28;20651;-76
2023/01/22 10:04:33;;;;;;;20.80;8.20;;;;;;;-145.69;100.00;52687.97;5117608;28;20279;-76
2023/01/22 10:07:07;;;;;;;18.50;8.43;;;;;;;-145.69;100.00;52695.91;5117514;28;20197;-76
2023/01/22 10:09:38;;;;;;;21.57;9.07;;;;;;;-145.69;100.00;52707.78;5117369;28;20197;-76
2023/01/22 10:12:12;;;;;;;19.10;7.30;;;;;;;-145.69;100.00;52693.94;5117056;28;20618;-77
2023/01/22 10:14:39;;;;;;;14.63;6.30;;;;;;;-145.69;100.00;52701.84;5117377;28;20198;-76
2023/01/22 10:17:17;;;;;;;13.73;6.90;;;;;;;-145.69;100.00;52709.78;5117076;28;20633;-76
2023/01/22 10:19:47;;;;;;;17.43;6.53;;;;;;;-145.69;100.00;52705.81;5114210;28;20869;-81
2023/01/22 10:22:19;;;;;;;11.60;6.03;;;;;;;-145.69;100.00;52719.66;5118086;28;20197;-81
2023/01/22 10:24:46;;;;;;;14.33;6.50;;;;;;;-145.69;100.00;52701.84;5117393;28;20182;-78
2023/01/22 10:27:15;;;;;;;12.47;5.33;;;;;;;-145.69;100.00;52691.94;5117079;28;20217;-79
2023/01/22 10:29:44;;;;;;;15.10;6.17;;;;;;;-145.69;100.00;52693.94;5117011;28;20201;-79
2023/01/22 10:32:24;;;;;;;16.90;6.47;;;;;;;-145.69;100.00;52695.91;5116794;28;20228;-78
2023/01/22 10:34:59;;;;;;;14.90;6.07;;;;;;;-145.69;100.00;52709.78;5117517;28;20193;-79
2023/01/22 10:37:26;;;;;;;14.60;5.90;;;;;;;-145.69;100.00;52695.91;5114390;28;20193;-78
2023/01/22 10:39:57;;;;;;;11.87;5.40;;;;;;;-145.69;100.00;52686.00;5114214;28;20555;-79
2023/01/22 10:42:26;;;;;;;12.13;5.63;;;;;;;-145.69;100.00;52725.63;5116703;28;20201;-79
2023/01/22 10:44:55;;;;;;;11.53;5.37;;;;;;;-145.69;100.00;52703.81;5116390;28;20232;-78
2023/01/22 10:47:26;;;;;;;10.87;5.27;;;;;;;-145.69;100.00;52682.03;5115886;28;20664;-79
2023/01/22 10:50:01;;;;;;;11.47;5.30;;;;;;;-145.69;100.00;52666.19;5116484;28;20283;-79
2023/01/22 10:52:38;;;;;;;12.37;5.10;;;;;;;-145.69;100.00;52687.97;5115876;28;20687;-78
2023/01/22 10:55:06;;;;;;;11.20;5.13;;;;;;;-145.69;100.00;52693.94;5116243;28;20224;-79
2023/01/22 10:57:36;;;;;;;12.83;5.37;;;;;;;-145.69;100.00;52715.72;5116261;28;20201;-78
2023/01/22 11:00:19;;;;;;;10.10;5.30;;;;;;;-145.69;100.00;52699.88;5116016;28;20205;-78
2023/01/22 11:02:50;;;;;;;11.20;4.87;;;;;;;-145.69;100.00;52735.50;5116289;28;20201;-78
2023/01/22 11:05:18;;;;;;;11.70;5.30;;;;;;;-145.69;100.00;52695.91;5116218;28;20204;-78
2023/01/22 11:07:47;;;;;;;12.80;5.40;;;;;;;-145.69;100.00;52705.81;5115872;28;20292;-78
2023/01/22 11:10:22;;;;;;;11.80;5.50;;;;;;;-145.69;100.00;52725.63;5116133;28;20631;-78